VIV4010 MMMY-MMPB
Flight info
| Callsign | VIV4010 |
|---|---|
| Flight time | 1h 4m |
| Altitude | 37000 |
| Route | KERG1A/12 KERGA UJ81 JUCRO DCT URMAS DCT ATUKA ATUKA1A |
| Aircraft | A20N/M-SDE2E3FGHIRWXY/LB1 |
Departure
| Time | 2026-05-05 01:10 |
|---|---|
| Airport | Monterrey International Airport (MMMY) |
Arrival
| Time | 2026-05-05 02:14 |
|---|---|
| Airport | Hermanos Serdán International Airport (MMPB) |
| Time | Latitude | Longitude | Altitude | Speed | Heading |
|---|---|---|---|---|---|
| 2026-05-05 00:33 | 25.77906 | -100.11391 | 1277 ft | 0 kts | 211° |
| 2026-05-05 00:59 | 25.77915 | -100.11385 | 1278 ft | 2 kts | 212° |
| 2026-05-05 00:59 | 25.77928 | -100.11375 | 1277 ft | 2 kts | 215° |
| 2026-05-05 00:59 | 25.77942 | -100.11364 | 1279 ft | 2 kts | 219° |
| 2026-05-05 01:00 | 25.77954 | -100.11352 | 1277 ft | 2 kts | 226° |
| 2026-05-05 01:00 | 25.77964 | -100.11338 | 1278 ft | 2 kts | 240° |
| 2026-05-05 01:00 | 25.77970 | -100.11321 | 1277 ft | 2 kts | 272° |
| 2026-05-05 01:00 | 25.77967 | -100.11305 | 1278 ft | 1 kts | 297° |
| 2026-05-05 01:01 | 25.77965 | -100.11301 | 1278 ft | 0 kts | 300° |
| 2026-05-05 01:04 | 25.77977 | -100.11326 | 1281 ft | 4 kts | 300° |
| 2026-05-05 01:04 | 25.77998 | -100.11363 | 1278 ft | 7 kts | 302° |
| 2026-05-05 01:05 | 25.78029 | -100.11417 | 1279 ft | 9 kts | 302° |
| 2026-05-05 01:05 | 25.78068 | -100.11487 | 1280 ft | 12 kts | 301° |
| 2026-05-05 01:05 | 25.78115 | -100.11572 | 1281 ft | 14 kts | 302° |
| 2026-05-05 01:05 | 25.78167 | -100.11666 | 1286 ft | 13 kts | 300° |
| 2026-05-05 01:06 | 25.78215 | -100.11755 | 1287 ft | 13 kts | 301° |
| 2026-05-05 01:06 | 25.78257 | -100.11803 | 1286 ft | 9 kts | 346° |
| 2026-05-05 01:06 | 25.78318 | -100.11777 | 1287 ft | 6 kts | 32° |
| 2026-05-05 01:06 | 25.78318 | -100.11776 | 1287 ft | 0 kts | 32° |
| 2026-05-05 01:07 | 25.78325 | -100.11771 | 1288 ft | 2 kts | 32° |
| 2026-05-05 01:07 | 25.78346 | -100.11756 | 1288 ft | 5 kts | 32° |
| 2026-05-05 01:07 | 25.78353 | -100.11752 | 1288 ft | 0 kts | 32° |
| 2026-05-05 01:08 | 25.78354 | -100.11751 | 1288 ft | 1 kts | 32° |
| 2026-05-05 01:08 | 25.78370 | -100.11740 | 1288 ft | 5 kts | 32° |
| 2026-05-05 01:09 | 25.78400 | -100.11708 | 1288 ft | 7 kts | 70° |
| 2026-05-05 01:09 | 25.78385 | -100.11651 | 1288 ft | 10 kts | 121° |
| 2026-05-05 01:09 | 25.78319 | -100.11533 | 1286 ft | 40 kts | 122° |
| 2026-05-05 01:09 | 25.78048 | -100.11041 | 1274 ft | 106 kts | 121° |
| 2026-05-05 01:10 | 25.77588 | -100.10193 | 1426 ft | 137 kts | 120° |
| 2026-05-05 01:10 | 25.77107 | -100.09332 | 2028 ft | 132 kts | 123° |
| 2026-05-05 01:10 | 25.76608 | -100.08452 | 2520 ft | 136 kts | 123° |
| 2026-05-05 01:10 | 25.76093 | -100.07556 | 3084 ft | 140 kts | 123° |
| 2026-05-05 01:11 | 25.75549 | -100.06595 | 3482 ft | 158 kts | 122° |
| 2026-05-05 01:11 | 25.74927 | -100.05494 | 3937 ft | 178 kts | 123° |
| 2026-05-05 01:11 | 25.74252 | -100.04262 | 4373 ft | 198 kts | 123° |
| 2026-05-05 01:11 | 25.73503 | -100.02866 | 4828 ft | 222 kts | 122° |
| 2026-05-05 01:12 | 25.72669 | -100.01310 | 5250 ft | 248 kts | 121° |
| 2026-05-05 01:12 | 25.71750 | -99.99598 | 5828 ft | 266 kts | 121° |
| 2026-05-05 01:12 | 25.70608 | -99.97938 | 6605 ft | 277 kts | 139° |
| 2026-05-05 01:12 | 25.68927 | -99.96851 | 7356 ft | 285 kts | 164° |
| 2026-05-05 01:13 | 25.66972 | -99.96627 | 8205 ft | 287 kts | 184° |
| 2026-05-05 01:13 | 25.64980 | -99.96748 | 9050 ft | 292 kts | 185° |
| 2026-05-05 01:13 | 25.62935 | -99.96885 | 9880 ft | 296 kts | 186° |
| 2026-05-05 01:13 | 25.60854 | -99.97021 | 10482 ft | 308 kts | 186° |
| 2026-05-05 01:14 | 25.58659 | -99.97165 | 10746 ft | 331 kts | 185° |
| 2026-05-05 01:14 | 25.56249 | -99.97314 | 11202 ft | 348 kts | 184° |
| 2026-05-05 01:14 | 25.53817 | -99.97449 | 12090 ft | 351 kts | 185° |
| 2026-05-05 01:14 | 25.51362 | -99.97590 | 12951 ft | 354 kts | 186° |
| 2026-05-05 01:15 | 25.48940 | -99.97736 | 13718 ft | 357 kts | 186° |
| 2026-05-05 01:15 | 25.46418 | -99.97888 | 14345 ft | 362 kts | 186° |
| 2026-05-05 01:15 | 25.43874 | -99.98041 | 14950 ft | 368 kts | 187° |
| 2026-05-05 01:15 | 25.41306 | -99.98195 | 15624 ft | 373 kts | 187° |
| 2026-05-05 01:16 | 25.38688 | -99.98350 | 16261 ft | 378 kts | 187° |
| 2026-05-05 01:16 | 25.36079 | -99.98505 | 16878 ft | 383 kts | 187° |
| 2026-05-05 01:16 | 25.33389 | -99.98652 | 17495 ft | 388 kts | 187° |
| 2026-05-05 01:16 | 25.30668 | -99.98779 | 18106 ft | 393 kts | 187° |
| 2026-05-05 01:17 | 25.27913 | -99.98902 | 18582 ft | 399 kts | 187° |
| 2026-05-05 01:17 | 25.25124 | -99.99028 | 19144 ft | 402 kts | 187° |
| 2026-05-05 01:17 | 25.22349 | -99.99154 | 19686 ft | 405 kts | 187° |
| 2026-05-05 01:17 | 25.19512 | -99.99286 | 20219 ft | 409 kts | 187° |
| 2026-05-05 01:18 | 25.16652 | -99.99419 | 20745 ft | 413 kts | 187° |
| 2026-05-05 01:18 | 25.13773 | -99.99555 | 21388 ft | 413 kts | 187° |
| 2026-05-05 01:18 | 25.10897 | -99.99694 | 21908 ft | 416 kts | 187° |
| 2026-05-05 01:18 | 25.07968 | -99.99832 | 22249 ft | 425 kts | 187° |
| 2026-05-05 01:19 | 25.05039 | -99.99967 | 22805 ft | 427 kts | 187° |
| 2026-05-05 01:19 | 25.02061 | -100.00105 | 23274 ft | 429 kts | 187° |
| 2026-05-05 01:19 | 24.99046 | -100.00245 | 23635 ft | 433 kts | 187° |
| 2026-05-05 01:19 | 24.96003 | -100.00392 | 23981 ft | 440 kts | 186° |
| 2026-05-05 01:20 | 24.92924 | -100.00292 | 24483 ft | 445 kts | 179° |
| 2026-05-05 01:20 | 24.89835 | -99.99916 | 24953 ft | 447 kts | 178° |
| 2026-05-05 01:20 | 24.86769 | -99.99540 | 25381 ft | 450 kts | 178° |
| 2026-05-05 01:20 | 24.83642 | -99.99164 | 25811 ft | 452 kts | 178° |
| 2026-05-05 01:21 | 24.80506 | -99.98792 | 26247 ft | 454 kts | 178° |
| 2026-05-05 01:21 | 24.77347 | -99.98419 | 26626 ft | 457 kts | 178° |
| 2026-05-05 01:21 | 24.74166 | -99.98046 | 26992 ft | 459 kts | 178° |
| 2026-05-05 01:21 | 24.70986 | -99.97667 | 27415 ft | 460 kts | 178° |
| 2026-05-05 01:22 | 24.67822 | -99.97293 | 27761 ft | 463 kts | 178° |
| 2026-05-05 01:22 | 24.64603 | -99.96912 | 28144 ft | 465 kts | 178° |
| 2026-05-05 01:22 | 24.61368 | -99.96527 | 28526 ft | 468 kts | 178° |
| 2026-05-05 01:22 | 24.58123 | -99.96141 | 28870 ft | 470 kts | 178° |
| 2026-05-05 01:23 | 24.54861 | -99.95754 | 29223 ft | 473 kts | 178° |
| 2026-05-05 01:23 | 24.51618 | -99.95368 | 29587 ft | 475 kts | 178° |
| 2026-05-05 01:23 | 24.48326 | -99.94978 | 29963 ft | 477 kts | 178° |
| 2026-05-05 01:23 | 24.45011 | -99.94586 | 30280 ft | 479 kts | 178° |
| 2026-05-05 01:24 | 24.41689 | -99.94193 | 30643 ft | 480 kts | 178° |
| 2026-05-05 01:24 | 24.38357 | -99.93798 | 30991 ft | 481 kts | 178° |
| 2026-05-05 01:24 | 24.35020 | -99.93404 | 31402 ft | 481 kts | 178° |
| 2026-05-05 01:24 | 24.31686 | -99.93010 | 31874 ft | 479 kts | 178° |
| 2026-05-05 01:25 | 24.28375 | -99.92619 | 32336 ft | 477 kts | 178° |
| 2026-05-05 01:25 | 24.25094 | -99.92232 | 32842 ft | 475 kts | 178° |
| 2026-05-05 01:25 | 24.21816 | -99.91847 | 33280 ft | 473 kts | 178° |
| 2026-05-05 01:25 | 24.18600 | -99.91470 | 33786 ft | 468 kts | 178° |
| 2026-05-05 01:26 | 24.15370 | -99.91092 | 34153 ft | 468 kts | 178° |
| 2026-05-05 01:26 | 24.12118 | -99.90710 | 34414 ft | 469 kts | 178° |
| 2026-05-05 01:26 | 24.08868 | -99.90327 | 34696 ft | 469 kts | 178° |
| 2026-05-05 01:26 | 24.05624 | -99.89939 | 34981 ft | 468 kts | 178° |
| 2026-05-05 01:27 | 24.02387 | -99.89556 | 35243 ft | 469 kts | 178° |
| 2026-05-05 01:27 | 23.99126 | -99.89178 | 35514 ft | 469 kts | 178° |
| 2026-05-05 01:27 | 23.95919 | -99.88808 | 35801 ft | 470 kts | 178° |
| 2026-05-05 01:27 | 23.92655 | -99.88428 | 36075 ft | 470 kts | 178° |
| 2026-05-05 01:28 | 23.89399 | -99.88047 | 36317 ft | 471 kts | 178° |
| 2026-05-05 01:28 | 23.86136 | -99.87666 | 36616 ft | 469 kts | 178° |
| 2026-05-05 01:28 | 23.82893 | -99.87285 | 36877 ft | 470 kts | 178° |
| 2026-05-05 01:28 | 23.79636 | -99.86903 | 36916 ft | 470 kts | 178° |
| 2026-05-05 01:29 | 23.73171 | -99.86146 | 36921 ft | 468 kts | 177° |
| 2026-05-05 01:29 | 23.66676 | -99.85386 | 36906 ft | 470 kts | 177° |
| 2026-05-05 01:30 | 23.60179 | -99.84625 | 36902 ft | 470 kts | 177° |
| 2026-05-05 01:30 | 23.53677 | -99.83866 | 36893 ft | 468 kts | 177° |
| 2026-05-05 01:31 | 23.47231 | -99.83109 | 36921 ft | 467 kts | 178° |
| 2026-05-05 01:31 | 23.40768 | -99.82354 | 36913 ft | 470 kts | 178° |
| 2026-05-05 01:32 | 23.34240 | -99.81601 | 36909 ft | 470 kts | 178° |
| 2026-05-05 01:32 | 23.27868 | -99.80864 | 36903 ft | 470 kts | 178° |
| 2026-05-05 01:33 | 23.21349 | -99.80110 | 36915 ft | 470 kts | 178° |
| 2026-05-05 01:33 | 23.14840 | -99.79361 | 36881 ft | 469 kts | 178° |
| 2026-05-05 01:34 | 23.08334 | -99.78609 | 36893 ft | 470 kts | 177° |
| 2026-05-05 01:34 | 23.01863 | -99.77860 | 36886 ft | 470 kts | 177° |
| 2026-05-05 01:35 | 22.95359 | -99.76952 | 36885 ft | 472 kts | 171° |
| 2026-05-05 01:35 | 22.88918 | -99.75424 | 36875 ft | 473 kts | 170° |
| 2026-05-05 01:36 | 22.82476 | -99.73903 | 36879 ft | 473 kts | 171° |
| 2026-05-05 01:36 | 22.76073 | -99.72398 | 36866 ft | 474 kts | 170° |
| 2026-05-05 01:37 | 22.69606 | -99.70879 | 36874 ft | 477 kts | 170° |
| 2026-05-05 01:37 | 22.63119 | -99.69356 | 36874 ft | 477 kts | 170° |
| 2026-05-05 01:38 | 22.56679 | -99.67846 | 36880 ft | 476 kts | 171° |
| 2026-05-05 01:38 | 22.50197 | -99.66329 | 36884 ft | 475 kts | 171° |
| 2026-05-05 01:39 | 22.43730 | -99.64816 | 36883 ft | 472 kts | 170° |
| 2026-05-05 01:39 | 22.37279 | -99.63307 | 36893 ft | 475 kts | 170° |
| 2026-05-05 01:40 | 22.30857 | -99.61806 | 36888 ft | 475 kts | 170° |
| 2026-05-05 01:40 | 22.24397 | -99.60298 | 36885 ft | 473 kts | 170° |
| 2026-05-05 01:41 | 22.17959 | -99.58798 | 36887 ft | 474 kts | 170° |
| 2026-05-05 01:41 | 22.11497 | -99.57294 | 36880 ft | 473 kts | 169° |
| 2026-05-05 01:42 | 22.05089 | -99.55803 | 36881 ft | 474 kts | 169° |
| 2026-05-05 01:42 | 21.98635 | -99.54303 | 36871 ft | 473 kts | 170° |
| 2026-05-05 01:43 | 21.92197 | -99.52809 | 36866 ft | 473 kts | 169° |
| 2026-05-05 01:43 | 21.85806 | -99.51327 | 36860 ft | 472 kts | 169° |
| 2026-05-05 01:44 | 21.79374 | -99.49838 | 36865 ft | 472 kts | 169° |
| 2026-05-05 01:44 | 21.72952 | -99.48351 | 36856 ft | 472 kts | 169° |
| 2026-05-05 01:45 | 21.66559 | -99.46869 | 36850 ft | 471 kts | 169° |
| 2026-05-05 01:45 | 21.60175 | -99.45396 | 36839 ft | 471 kts | 169° |
| 2026-05-05 01:46 | 21.53759 | -99.43917 | 36838 ft | 471 kts | 169° |
| 2026-05-05 01:46 | 21.47354 | -99.42441 | 36844 ft | 470 kts | 169° |
| 2026-05-05 01:47 | 21.40961 | -99.40965 | 36842 ft | 470 kts | 169° |
| 2026-05-05 01:47 | 21.34613 | -99.39415 | 36843 ft | 470 kts | 168° |
| 2026-05-05 01:48 | 21.28219 | -99.37836 | 36847 ft | 471 kts | 168° |
| 2026-05-05 01:48 | 21.21853 | -99.36276 | 36848 ft | 471 kts | 168° |
| 2026-05-05 01:49 | 21.15461 | -99.34717 | 36850 ft | 471 kts | 168° |
| 2026-05-05 01:49 | 21.10125 | -99.33417 | 36851 ft | 472 kts | 168° |
| 2026-05-05 01:50 | 21.03722 | -99.31856 | 36848 ft | 471 kts | 168° |
| 2026-05-05 01:50 | 20.97322 | -99.30298 | 36840 ft | 471 kts | 168° |
| 2026-05-05 01:51 | 20.90973 | -99.28755 | 36843 ft | 471 kts | 168° |
| 2026-05-05 01:51 | 20.84577 | -99.27203 | 36826 ft | 468 kts | 168° |
| 2026-05-05 01:52 | 20.78215 | -99.25628 | 36822 ft | 469 kts | 164° |
| 2026-05-05 01:52 | 20.72384 | -99.22611 | 36830 ft | 471 kts | 143° |
| 2026-05-05 01:53 | 20.67872 | -99.17636 | 36829 ft | 471 kts | 123° |
| 2026-05-05 01:53 | 20.64248 | -99.11815 | 36826 ft | 470 kts | 123° |
| 2026-05-05 01:54 | 20.60605 | -99.05999 | 36818 ft | 471 kts | 123° |
| 2026-05-05 01:54 | 20.56952 | -99.00183 | 36796 ft | 472 kts | 123° |
| 2026-05-05 01:55 | 20.55149 | -98.97315 | 36596 ft | 469 kts | 123° |
| 2026-05-05 01:55 | 20.53337 | -98.94433 | 36350 ft | 467 kts | 123° |
| 2026-05-05 01:55 | 20.51525 | -98.91551 | 35988 ft | 468 kts | 123° |
| 2026-05-05 01:55 | 20.49700 | -98.88651 | 35285 ft | 472 kts | 123° |
| 2026-05-05 01:56 | 20.47861 | -98.85729 | 34378 ft | 478 kts | 123° |
| 2026-05-05 01:56 | 20.45993 | -98.82763 | 33514 ft | 482 kts | 123° |
| 2026-05-05 01:56 | 20.44120 | -98.79790 | 32545 ft | 485 kts | 123° |
| 2026-05-05 01:56 | 20.42221 | -98.76778 | 31525 ft | 491 kts | 123° |
| 2026-05-05 01:57 | 20.40314 | -98.73754 | 30614 ft | 493 kts | 123° |
| 2026-05-05 01:57 | 20.38412 | -98.70741 | 29698 ft | 487 kts | 124° |
| 2026-05-05 01:57 | 20.36537 | -98.67814 | 28891 ft | 480 kts | 127° |
| 2026-05-05 01:57 | 20.34362 | -98.65158 | 28412 ft | 470 kts | 136° |
| 2026-05-05 01:58 | 20.31893 | -98.62941 | 27953 ft | 460 kts | 144° |
| 2026-05-05 01:58 | 20.29184 | -98.61165 | 27351 ft | 455 kts | 152° |
| 2026-05-05 01:58 | 20.26423 | -98.59545 | 26748 ft | 451 kts | 151° |
| 2026-05-05 01:58 | 20.23684 | -98.57931 | 26107 ft | 448 kts | 151° |
| 2026-05-05 01:59 | 20.20974 | -98.56330 | 25553 ft | 443 kts | 150° |
| 2026-05-05 01:59 | 20.18279 | -98.54738 | 24943 ft | 440 kts | 150° |
| 2026-05-05 01:59 | 20.15606 | -98.53160 | 24335 ft | 437 kts | 150° |
| 2026-05-05 01:59 | 20.12987 | -98.51613 | 23752 ft | 435 kts | 150° |
| 2026-05-05 02:00 | 20.10369 | -98.50069 | 23336 ft | 421 kts | 150° |
| 2026-05-05 02:00 | 20.07874 | -98.48598 | 23121 ft | 399 kts | 150° |
| 2026-05-05 02:00 | 20.05500 | -98.47199 | 22911 ft | 379 kts | 150° |
| 2026-05-05 02:00 | 20.03242 | -98.45867 | 22542 ft | 366 kts | 150° |
| 2026-05-05 02:01 | 20.01016 | -98.44554 | 21848 ft | 363 kts | 150° |
| 2026-05-05 02:01 | 19.98810 | -98.43253 | 21180 ft | 360 kts | 150° |
| 2026-05-05 02:01 | 19.96628 | -98.41968 | 20549 ft | 357 kts | 150° |
| 2026-05-05 02:01 | 19.94494 | -98.40711 | 19958 ft | 354 kts | 150° |
| 2026-05-05 02:02 | 19.92343 | -98.39445 | 19311 ft | 352 kts | 150° |
| 2026-05-05 02:02 | 19.90202 | -98.38186 | 18700 ft | 350 kts | 150° |
| 2026-05-05 02:02 | 19.88087 | -98.36942 | 18111 ft | 348 kts | 149° |
| 2026-05-05 02:02 | 19.85982 | -98.35703 | 17466 ft | 344 kts | 150° |
| 2026-05-05 02:03 | 19.83905 | -98.34480 | 16984 ft | 341 kts | 150° |
| 2026-05-05 02:03 | 19.81827 | -98.33259 | 16499 ft | 346 kts | 150° |
| 2026-05-05 02:03 | 19.79729 | -98.32025 | 16186 ft | 341 kts | 150° |
| 2026-05-05 02:03 | 19.77669 | -98.30815 | 15863 ft | 336 kts | 150° |
| 2026-05-05 02:04 | 19.75634 | -98.29620 | 15291 ft | 333 kts | 150° |
| 2026-05-05 02:04 | 19.73607 | -98.28429 | 14695 ft | 332 kts | 151° |
| 2026-05-05 02:04 | 19.71584 | -98.27260 | 14125 ft | 329 kts | 155° |
| 2026-05-05 02:04 | 19.69438 | -98.26584 | 13556 ft | 324 kts | 175° |
| 2026-05-05 02:05 | 19.67239 | -98.26663 | 13265 ft | 307 kts | 191° |
| 2026-05-05 02:05 | 19.65186 | -98.27024 | 13103 ft | 290 kts | 191° |
| 2026-05-05 02:05 | 19.63253 | -98.27351 | 12965 ft | 273 kts | 191° |
| 2026-05-05 02:05 | 19.61431 | -98.27654 | 12778 ft | 258 kts | 191° |
| 2026-05-05 02:06 | 19.59676 | -98.27949 | 12311 ft | 255 kts | 190° |
| 2026-05-05 02:06 | 19.57933 | -98.28246 | 11863 ft | 251 kts | 190° |
| 2026-05-05 02:06 | 19.56209 | -98.28540 | 11390 ft | 250 kts | 190° |
| 2026-05-05 02:06 | 19.54510 | -98.28829 | 11165 ft | 247 kts | 189° |
| 2026-05-05 02:07 | 19.52804 | -98.29119 | 11106 ft | 247 kts | 189° |
| 2026-05-05 02:07 | 19.51131 | -98.29428 | 11101 ft | 247 kts | 194° |
| 2026-05-05 02:07 | 19.49497 | -98.30005 | 11124 ft | 248 kts | 201° |
| 2026-05-05 02:07 | 19.47881 | -98.30631 | 11149 ft | 247 kts | 200° |
| 2026-05-05 02:08 | 19.46259 | -98.31250 | 11167 ft | 248 kts | 200° |
| 2026-05-05 02:08 | 19.44632 | -98.31869 | 11194 ft | 247 kts | 200° |
| 2026-05-05 02:08 | 19.43065 | -98.32596 | 11197 ft | 247 kts | 210° |
| 2026-05-05 02:08 | 19.41573 | -98.33482 | 11027 ft | 244 kts | 210° |
| 2026-05-05 02:09 | 19.40093 | -98.34357 | 10658 ft | 243 kts | 209° |
| 2026-05-05 02:09 | 19.38650 | -98.35210 | 10392 ft | 234 kts | 208° |
| 2026-05-05 02:09 | 19.37229 | -98.36045 | 9989 ft | 233 kts | 208° |
| 2026-05-05 02:09 | 19.35838 | -98.36860 | 9779 ft | 221 kts | 208° |
| 2026-05-05 02:10 | 19.34528 | -98.37545 | 9752 ft | 199 kts | 197° |
| 2026-05-05 02:10 | 19.33227 | -98.37808 | 9612 ft | 184 kts | 181° |
| 2026-05-05 02:10 | 19.31962 | -98.37761 | 9371 ft | 181 kts | 176° |
| 2026-05-05 02:10 | 19.30716 | -98.37701 | 9128 ft | 181 kts | 177° |
| 2026-05-05 02:11 | 19.29442 | -98.37651 | 8981 ft | 184 kts | 177° |
| 2026-05-05 02:11 | 19.28162 | -98.37602 | 8919 ft | 182 kts | 178° |
| 2026-05-05 02:11 | 19.26912 | -98.37556 | 8905 ft | 177 kts | 178° |
| 2026-05-05 02:11 | 19.25761 | -98.37511 | 8927 ft | 157 kts | 179° |
| 2026-05-05 02:12 | 19.24689 | -98.37469 | 8760 ft | 156 kts | 180° |
| 2026-05-05 02:12 | 19.22587 | -98.37397 | 8334 ft | 148 kts | 178° |
| 2026-05-05 02:12 | 19.21527 | -98.37359 | 8224 ft | 155 kts | 179° |
| 2026-05-05 02:13 | 19.20482 | -98.37324 | 8150 ft | 148 kts | 177° |
| 2026-05-05 02:13 | 19.19473 | -98.37287 | 7901 ft | 140 kts | 177° |
| 2026-05-05 02:13 | 19.18532 | -98.37249 | 7626 ft | 131 kts | 176° |
| 2026-05-05 02:13 | 19.17589 | -98.37218 | 7449 ft | 143 kts | 176° |
| 2026-05-05 02:14 | 19.16622 | -98.37181 | 7357 ft | 130 kts | 177° |
| 2026-05-05 02:14 | 19.15867 | -98.37149 | 7353 ft | 82 kts | 178° |
| 2026-05-05 02:14 | 19.15438 | -98.37132 | 7353 ft | 53 kts | 178° |
| 2026-05-05 02:14 | 19.15087 | -98.37118 | 7353 ft | 48 kts | 178° |
| 2026-05-05 02:15 | 19.14777 | -98.37111 | 7353 ft | 37 kts | 179° |
| 2026-05-05 02:15 | 19.14538 | -98.37104 | 7353 ft | 27 kts | 178° |
| 2026-05-05 02:15 | 19.14375 | -98.37098 | 7353 ft | 9 kts | 178° |
| 2026-05-05 02:15 | 19.14307 | -98.37097 | 7353 ft | 11 kts | 186° |
| 2026-05-05 02:16 | 19.14244 | -98.37139 | 7354 ft | 10 kts | 208° |
| 2026-05-05 02:16 | 19.14220 | -98.37102 | 7353 ft | 8 kts | 56° |
| 2026-05-05 02:16 | 19.14279 | -98.37092 | 7353 ft | 10 kts | 356° |
| 2026-05-05 02:16 | 19.14362 | -98.37097 | 7353 ft | 13 kts | 356° |
| 2026-05-05 02:17 | 19.14466 | -98.37102 | 7353 ft | 16 kts | 358° |
| 2026-05-05 02:17 | 19.14585 | -98.37105 | 7353 ft | 19 kts | 359° |
| 2026-05-05 02:17 | 19.14722 | -98.37108 | 7354 ft | 21 kts | 359° |
| 2026-05-05 02:17 | 19.14873 | -98.37113 | 7353 ft | 23 kts | 358° |
| 2026-05-05 02:18 | 19.15037 | -98.37120 | 7354 ft | 24 kts | 358° |
| 2026-05-05 02:18 | 19.15213 | -98.37127 | 7353 ft | 26 kts | 358° |
| 2026-05-05 02:18 | 19.15398 | -98.37134 | 7353 ft | 28 kts | 358° |
| 2026-05-05 02:18 | 19.15568 | -98.37139 | 7353 ft | 23 kts | 358° |
| 2026-05-05 02:19 | 19.15716 | -98.37145 | 7353 ft | 20 kts | 358° |
| 2026-05-05 02:19 | 19.15806 | -98.37148 | 7353 ft | 14 kts | 358° |
| 2026-05-05 02:19 | 19.15909 | -98.37152 | 7353 ft | 13 kts | 358° |
| 2026-05-05 02:19 | 19.16007 | -98.37161 | 7353 ft | 15 kts | 345° |
| 2026-05-05 02:20 | 19.16108 | -98.37221 | 7353 ft | 18 kts | 329° |
| 2026-05-05 02:20 | 19.16209 | -98.37287 | 7353 ft | 13 kts | 328° |
| 2026-05-05 02:20 | 19.16275 | -98.37330 | 7353 ft | 11 kts | 328° |
| 2026-05-05 02:20 | 19.16323 | -98.37376 | 7354 ft | 9 kts | 300° |
| 2026-05-05 02:21 | 19.16320 | -98.37418 | 7353 ft | 4 kts | 235° |
| 2026-05-05 02:21 | 19.16297 | -98.37432 | 7353 ft | 0 kts | 202° |
| 2026-05-05 02:21 | 19.16284 | -98.37437 | 7353 ft | 3 kts | 204° |
| 2026-05-05 02:21 | 19.16274 | -98.37457 | 7353 ft | 4 kts | 254° |
| 2026-05-05 02:22 | 19.16273 | -98.37485 | 7353 ft | 1 kts | 267° |
| 2026-05-05 02:22 | 19.16272 | -98.37491 | 7353 ft | 0 kts | 267° |